createdAt,value
2018-08-25T00:01:32.858Z,15.83
2018-08-25T00:04:03.158Z,15.73
2018-08-25T00:06:33.636Z,15.66
2018-08-25T00:09:04.322Z,15.90
2018-08-25T00:11:34.763Z,15.97
2018-08-25T00:14:05.388Z,16.06
2018-08-25T00:16:36.152Z,16.20
2018-08-25T00:19:06.843Z,15.70
2018-08-25T00:21:37.392Z,15.24
2018-08-25T00:24:07.836Z,15.12
2018-08-25T00:26:39.336Z,15.00
2018-08-25T00:29:09.753Z,14.96
2018-08-25T00:31:40.262Z,15.24
2018-08-25T00:34:10.784Z,15.35
2018-08-25T00:36:41.192Z,15.48
2018-08-25T00:39:11.662Z,15.46
2018-08-25T00:41:42.431Z,15.33
2018-08-25T00:44:17.405Z,15.25
2018-08-25T00:46:49.649Z,15.46
2018-08-25T00:49:20.791Z,15.51
2018-08-25T00:51:51.201Z,15.64
2018-08-25T00:54:22.024Z,15.64
2018-08-25T00:56:52.529Z,15.41
2018-08-25T00:59:23.270Z,15.31
2018-08-25T01:01:53.712Z,15.25
2018-08-25T01:04:25.468Z,15.24
2018-08-25T01:06:56.050Z,15.10
2018-08-25T01:09:26.651Z,15.32
2018-08-25T01:11:57.349Z,15.35
2018-08-25T01:14:27.991Z,15.21
2018-08-25T01:16:58.617Z,15.30
2018-08-25T01:19:29.158Z,15.34
2018-08-25T01:21:59.779Z,15.22
2018-08-25T01:24:30.920Z,15.22
2018-08-25T01:27:01.575Z,15.00
2018-08-25T01:29:32.118Z,15.07
2018-08-25T01:32:03.580Z,15.17
2018-08-25T01:34:34.195Z,15.16
2018-08-25T01:37:04.776Z,15.19
2018-08-25T01:39:35.230Z,15.31
2018-08-25T01:42:06.551Z,15.27
2018-08-25T01:44:36.974Z,15.07
2018-08-25T01:47:07.597Z,15.07
2018-08-25T01:49:37.991Z,14.61
2018-08-25T01:52:08.592Z,14.69
2018-08-25T01:54:39.172Z,14.81
2018-08-25T01:57:09.733Z,15.03
2018-08-25T01:59:40.299Z,15.14
2018-08-25T02:02:10.836Z,15.13
2018-08-25T02:04:41.772Z,15.03
2018-08-25T02:07:12.200Z,14.95
2018-08-25T02:09:42.654Z,15.01
2018-08-25T02:12:13.137Z,14.96
2018-08-25T02:14:43.844Z,15.02
2018-08-25T02:17:14.891Z,15.04
2018-08-25T02:19:45.114Z,15.04
2018-08-25T02:22:15.716Z,15.04
2018-08-25T02:24:46.471Z,15.03
2018-08-25T02:27:16.937Z,15.05
2018-08-25T02:29:47.471Z,14.97
2018-08-25T02:32:18.028Z,15.04
2018-08-25T02:34:48.385Z,14.96
2018-08-25T02:37:18.794Z,14.90
2018-08-25T02:39:49.132Z,14.93
2018-08-25T02:42:19.487Z,14.86
2018-08-25T02:44:49.904Z,14.89
2018-08-25T02:47:20.245Z,14.78
2018-08-25T02:49:50.556Z,14.63
2018-08-25T02:52:20.847Z,14.87
2018-08-25T02:54:51.229Z,14.73
2018-08-25T02:57:21.570Z,14.90
2018-08-25T02:59:51.863Z,14.94
2018-08-25T03:02:22.498Z,14.98
2018-08-25T03:04:52.805Z,14.97
2018-08-25T03:07:23.205Z,14.77
2018-08-25T03:09:53.466Z,14.84
2018-08-25T03:12:23.803Z,14.73
2018-08-25T03:14:54.128Z,14.77
2018-08-25T03:17:24.797Z,14.79
2018-08-25T03:19:55.255Z,14.71
2018-08-25T03:22:25.794Z,14.66
2018-08-25T03:24:56.043Z,14.79
2018-08-25T03:30:27.771Z,14.81
2018-08-25T03:32:57.861Z,14.79
2018-08-25T03:35:28.406Z,14.76
2018-08-25T03:37:58.794Z,14.65
2018-08-25T03:40:29.121Z,14.79
2018-08-25T03:42:59.537Z,14.63
2018-08-25T03:45:30.860Z,14.69
2018-08-25T03:48:01.753Z,14.67
2018-08-25T03:50:32.268Z,14.66
2018-08-25T03:53:03.089Z,14.74
2018-08-25T03:55:38.780Z,14.68
2018-08-25T03:58:10.788Z,14.55
2018-08-25T04:00:41.061Z,14.61
2018-08-25T04:03:14.758Z,14.58
2018-08-25T04:05:45.151Z,14.47
2018-08-25T04:08:15.499Z,14.45
2018-08-25T04:10:45.767Z,14.33
2018-08-25T04:13:16.185Z,14.41
2018-08-25T04:15:46.620Z,14.50
2018-08-25T04:18:17.818Z,14.60
2018-08-25T04:20:48.259Z,14.33
2018-08-25T04:23:18.575Z,14.30
2018-08-25T04:25:48.855Z,14.29
2018-08-25T04:28:19.137Z,14.40
2018-08-25T04:30:49.542Z,14.47
2018-08-25T04:33:20.196Z,14.38
2018-08-25T04:35:50.562Z,14.39
2018-08-25T04:38:20.905Z,14.30
2018-08-25T04:40:51.820Z,14.38
2018-08-25T04:43:22.082Z,14.41
2018-08-25T04:45:52.708Z,14.42
2018-08-25T04:48:23.161Z,14.44
2018-08-25T04:50:53.496Z,14.10
2018-08-25T04:53:23.960Z,14.27
2018-08-25T04:55:54.420Z,14.18
2018-08-25T04:58:24.798Z,14.20
2018-08-25T05:00:55.160Z,14.30
2018-08-25T05:03:25.384Z,14.08
2018-08-25T05:05:55.860Z,13.59
2018-08-25T05:08:26.170Z,13.67
2018-08-25T05:10:56.503Z,13.75
2018-08-25T05:13:26.725Z,13.77
2018-08-25T05:15:57.047Z,13.65
2018-08-25T05:18:27.494Z,13.79
2018-08-25T05:20:57.822Z,13.86
2018-08-25T05:23:28.172Z,13.50
2018-08-25T05:25:58.648Z,13.66
2018-08-25T05:28:29.446Z,13.68
2018-08-25T05:31:01.467Z,13.68
2018-08-25T05:33:31.830Z,13.77
2018-08-25T05:36:02.144Z,13.71
2018-08-25T05:38:32.980Z,13.55
2018-08-25T05:41:03.480Z,13.46
2018-08-25T05:43:33.813Z,13.56
2018-08-25T05:46:04.333Z,13.67
2018-08-25T05:48:34.467Z,13.70
2018-08-25T05:51:04.863Z,13.54
2018-08-25T05:53:35.284Z,13.88
2018-08-25T05:56:05.626Z,13.75
2018-08-25T05:58:35.998Z,14.06
2018-08-25T06:01:06.403Z,14.09
2018-08-25T06:03:37.616Z,13.85
2018-08-25T06:06:08.018Z,13.86
2018-08-25T06:08:38.534Z,13.86
2018-08-25T06:11:09.132Z,13.62
2018-08-25T06:13:39.530Z,13.78
2018-08-25T06:16:09.985Z,13.65
2018-08-25T06:18:40.430Z,13.68
2018-08-25T06:21:10.900Z,13.84
2018-08-25T06:23:41.160Z,13.89
2018-08-25T06:26:11.511Z,13.72
2018-08-25T06:28:41.709Z,14.25
2018-08-25T06:31:12.130Z,14.60
2018-08-25T06:33:42.368Z,14.75
2018-08-25T06:36:12.636Z,14.30
2018-08-25T06:38:43.840Z,14.26
2018-08-25T06:41:14.212Z,14.45
2018-08-25T06:43:44.529Z,14.51
2018-08-25T06:46:15.476Z,14.58
2018-08-25T06:48:45.952Z,14.74
2018-08-25T06:51:16.217Z,14.54
2018-08-25T06:53:46.424Z,14.33
2018-08-25T06:56:16.720Z,14.07
2018-08-25T06:58:46.993Z,13.89
2018-08-25T07:01:17.962Z,13.87
2018-08-25T07:03:48.400Z,13.99
2018-08-25T07:06:18.873Z,13.84
2018-08-25T07:08:49.135Z,13.78
2018-08-25T07:11:19.428Z,13.94
2018-08-25T07:13:49.885Z,13.79
2018-08-25T07:16:26.861Z,14.00
2018-08-25T07:18:57.445Z,14.13
2018-08-25T07:21:28.557Z,13.98
2018-08-25T07:23:58.685Z,14.36
2018-08-25T07:26:29.180Z,13.94
2018-08-25T07:28:59.349Z,13.97
2018-08-25T07:31:29.674Z,14.28
2018-08-25T07:34:00.263Z,14.34
2018-08-25T07:36:33.099Z,14.22
2018-08-25T07:39:03.466Z,14.16
2018-08-25T07:41:33.907Z,14.95
2018-08-25T07:44:04.300Z,14.62
2018-08-25T07:46:34.640Z,14.08
2018-08-25T07:49:05.631Z,14.27
2018-08-25T07:51:35.974Z,14.32
2018-08-25T07:54:06.872Z,14.41
2018-08-25T07:56:37.293Z,14.71
2018-08-25T07:59:07.735Z,14.26
2018-08-25T08:01:37.893Z,14.17
2018-08-25T08:04:08.032Z,14.16
2018-08-25T08:06:38.177Z,14.46
2018-08-25T08:09:11.013Z,14.52
2018-08-25T08:11:41.304Z,14.38
2018-08-25T08:14:11.780Z,14.55
2018-08-25T08:16:42.193Z,14.57
2018-08-25T08:19:12.570Z,14.56
2018-08-25T08:21:42.720Z,14.53
2018-08-25T08:24:12.973Z,14.53
2018-08-25T08:26:43.288Z,14.70
2018-08-25T08:29:13.633Z,14.81
2018-08-25T08:31:44.251Z,14.80
2018-08-25T08:34:14.540Z,14.83
2018-08-25T08:36:44.877Z,14.93
2018-08-25T08:39:15.277Z,15.03
2018-08-25T08:41:45.527Z,15.15
2018-08-25T08:44:15.892Z,15.44
2018-08-25T08:46:46.132Z,15.27
2018-08-25T08:49:17.509Z,15.00
2018-08-25T08:51:49.027Z,15.08
2018-08-25T08:54:21.242Z,14.90
2018-08-25T08:56:51.744Z,15.16
2018-08-25T08:59:22.152Z,15.13
2018-08-25T09:01:52.547Z,15.32
2018-08-25T09:04:22.875Z,15.33
2018-08-25T09:06:53.336Z,15.68
2018-08-25T09:09:23.747Z,15.34
2018-08-25T09:11:54.244Z,15.34
2018-08-25T09:14:24.613Z,15.67
2018-08-25T09:16:55.044Z,15.55
2018-08-25T09:19:25.596Z,15.84
2018-08-25T09:21:56.193Z,15.86
2018-08-25T09:24:26.548Z,15.85
2018-08-25T09:26:56.870Z,15.77
2018-08-25T09:29:27.384Z,15.93
2018-08-25T09:31:57.901Z,16.07
2018-08-25T09:34:28.455Z,15.78
2018-08-25T09:36:59.093Z,15.72
2018-08-25T09:39:29.827Z,15.54
2018-08-25T09:42:00.353Z,15.64
2018-08-25T09:44:31.035Z,15.64
2018-08-25T09:47:03.814Z,15.54
2018-08-25T09:49:35.022Z,15.45
2018-08-25T09:52:06.758Z,15.63
2018-08-25T09:54:36.981Z,15.66
2018-08-25T09:57:08.471Z,15.56
2018-08-25T09:59:40.103Z,15.67
2018-08-25T10:02:14.104Z,16.14
2018-08-25T10:04:55.891Z,16.03
2018-08-25T10:07:27.064Z,16.03
2018-08-25T10:09:57.425Z,16.06
2018-08-25T10:12:27.819Z,15.49
2018-08-25T10:14:58.297Z,15.30
2018-08-25T10:17:28.715Z,15.13
2018-08-25T10:19:59.209Z,14.98
2018-08-25T10:22:29.525Z,15.10
2018-08-25T10:25:00.058Z,14.61
2018-08-25T10:27:31.217Z,14.65
2018-08-25T10:30:02.292Z,14.79
2018-08-25T10:32:32.893Z,14.84
2018-08-25T10:35:03.548Z,14.94
2018-08-25T10:37:34.848Z,15.01
2018-08-25T10:40:05.189Z,15.13
2018-08-25T10:42:35.598Z,14.97
2018-08-25T10:45:09.308Z,14.74
2018-08-25T10:47:39.997Z,14.03
2018-08-25T10:50:10.277Z,13.73
2018-08-25T10:52:40.629Z,13.64
2018-08-25T10:55:14.323Z,13.66
2018-08-25T10:57:44.675Z,13.72
2018-08-25T11:00:15.151Z,13.63
2018-08-25T11:02:45.384Z,13.51
2018-08-25T11:05:17.291Z,13.58
2018-08-25T11:07:48.483Z,13.41
2018-08-25T11:10:21.543Z,13.52
2018-08-25T11:12:52.079Z,13.95
2018-08-25T11:15:24.506Z,14.06
2018-08-25T11:17:55.663Z,13.80
2018-08-25T11:20:26.091Z,13.62
2018-08-25T11:22:56.682Z,13.79
2018-08-25T11:25:27.145Z,13.70
2018-08-25T11:27:57.491Z,13.64
2018-08-25T11:30:27.890Z,13.81
2018-08-25T11:32:58.484Z,13.75
2018-08-25T11:35:28.913Z,13.76
2018-08-25T11:37:59.387Z,13.63
2018-08-25T11:40:31.775Z,13.73
2018-08-25T11:43:03.213Z,13.91
2018-08-25T11:45:33.589Z,13.97
2018-08-25T11:48:05.164Z,14.29
2018-08-25T11:50:35.921Z,14.18
2018-08-25T11:53:12.254Z,13.80
2018-08-25T11:55:45.645Z,13.51
2018-08-25T11:58:18.429Z,13.44
2018-08-25T12:00:52.353Z,13.54
2018-08-25T12:03:31.598Z,13.73
2018-08-25T12:06:09.029Z,13.92
2018-08-25T12:08:39.809Z,14.21
2018-08-25T12:11:11.806Z,14.36
2018-08-25T12:13:42.257Z,14.84
2018-08-25T12:16:12.739Z,14.96
2018-08-25T12:21:37.816Z,14.39
2018-08-25T12:24:10.284Z,13.81
2018-08-25T12:26:40.902Z,13.83
2018-08-25T12:29:18.493Z,13.95
2018-08-25T12:31:54.183Z,14.01
2018-08-25T12:34:29.197Z,14.11
2018-08-25T12:37:04.433Z,14.11
2018-08-25T12:39:37.269Z,13.60
2018-08-25T12:42:08.028Z,13.33
2018-08-25T12:44:38.316Z,13.59
2018-08-25T12:47:09.350Z,13.64
2018-08-25T12:49:39.851Z,13.75
2018-08-25T12:57:52.728Z,13.06
2018-08-25T13:00:24.932Z,13.16
2018-08-25T13:02:55.701Z,13.15
2018-08-25T13:05:27.576Z,13.23
2018-08-25T13:07:58.288Z,13.25
2018-08-25T13:10:30.451Z,13.39
2018-08-25T13:13:03.553Z,13.13
2018-08-25T13:15:37.630Z,13.43
2018-08-25T13:18:09.898Z,13.64
2018-08-25T13:20:43.421Z,13.80
2018-08-25T13:23:14.328Z,14.03
2018-08-25T13:25:44.871Z,14.01
2018-08-25T13:28:15.436Z,13.68
2018-08-25T13:30:45.682Z,13.64
2018-08-25T13:33:16.336Z,14.00
2018-08-25T13:35:47.127Z,13.69
2018-08-25T13:38:17.702Z,13.65
2018-08-25T13:40:48.115Z,13.85
2018-08-25T13:43:18.533Z,14.01
2018-08-25T13:45:48.824Z,13.93
2018-08-25T13:48:19.210Z,13.52
2018-08-25T13:50:49.704Z,13.83
2018-08-25T13:53:20.297Z,14.04
2018-08-25T13:55:50.661Z,14.14
2018-08-25T13:58:21.077Z,13.84
2018-08-25T14:00:51.550Z,14.09
2018-08-25T14:03:21.881Z,14.55
2018-08-25T14:05:52.197Z,14.27
2018-08-25T14:08:23.146Z,13.79
2018-08-25T14:10:53.420Z,13.75
2018-08-25T14:13:23.746Z,13.96
2018-08-25T14:15:54.168Z,14.03
2018-08-25T14:18:24.869Z,13.89
2018-08-25T14:20:55.293Z,13.96
2018-08-25T14:23:25.826Z,13.99
2018-08-25T14:25:56.460Z,13.92
2018-08-25T14:28:27.096Z,13.98
2018-08-25T14:30:57.556Z,13.67
2018-08-25T14:33:28.128Z,13.36
2018-08-25T14:35:58.822Z,12.74
2018-08-25T14:38:29.248Z,12.91
2018-08-25T14:41:00.114Z,12.73
2018-08-25T14:43:30.653Z,12.73
2018-08-25T14:46:00.990Z,12.54
2018-08-25T14:48:31.756Z,12.72
2018-08-25T14:51:02.315Z,12.61
2018-08-25T14:53:32.914Z,12.55
2018-08-25T14:56:03.514Z,12.36
2018-08-25T14:58:33.821Z,12.07
2018-08-25T15:01:04.357Z,12.15
2018-08-25T15:03:34.752Z,12.12
2018-08-25T15:06:05.084Z,12.44
2018-08-25T15:08:35.602Z,12.79
2018-08-25T15:11:05.881Z,12.74
2018-08-25T15:13:36.514Z,12.66
2018-08-25T15:16:07.058Z,12.91
2018-08-25T15:18:37.422Z,13.11
2018-08-25T15:21:07.670Z,13.64
2018-08-25T15:23:39.078Z,13.36
2018-08-25T15:26:09.497Z,13.59
2018-08-25T15:28:39.854Z,13.88
2018-08-25T15:31:10.982Z,13.59
2018-08-25T15:33:43.039Z,13.68
2018-08-25T15:36:20.796Z,13.60
2018-08-25T15:38:52.873Z,14.18
2018-08-25T15:41:25.249Z,14.36
2018-08-25T15:43:59.163Z,14.49
2018-08-25T15:46:30.577Z,14.22
2018-08-25T15:49:01.590Z,14.27
2018-08-25T15:51:32.867Z,14.15
2018-08-25T15:54:04.352Z,14.07
2018-08-25T15:56:36.016Z,14.08
2018-08-25T15:59:07.715Z,14.11
2018-08-25T16:01:39.274Z,13.82
2018-08-25T16:04:10.548Z,13.81
2018-08-25T16:06:41.295Z,14.02
2018-08-25T16:09:13.553Z,14.06
2018-08-25T16:11:44.796Z,14.12
2018-08-25T16:14:16.428Z,14.19
2018-08-25T16:16:48.136Z,14.14
2018-08-25T16:19:21.248Z,14.37
2018-08-25T16:21:52.373Z,13.95
2018-08-25T16:24:24.269Z,14.31
2018-08-25T16:26:55.946Z,14.03
2018-08-25T16:29:26.929Z,14.16
2018-08-25T16:31:57.357Z,14.01
2018-08-25T16:34:28.798Z,14.06
2018-08-25T16:36:59.353Z,14.61
2018-08-25T16:39:30.109Z,14.58
2018-08-25T16:42:01.211Z,13.99
2018-08-25T16:44:32.432Z,14.03
2018-08-25T16:47:02.869Z,14.13
2018-08-25T16:49:33.399Z,14.30
2018-08-25T16:52:05.251Z,14.44
2018-08-25T16:54:35.744Z,14.18
2018-08-25T16:57:05.961Z,13.70
2018-08-25T16:59:36.384Z,13.83
2018-08-25T17:02:06.787Z,13.81
2018-08-25T17:04:37.156Z,13.77
2018-08-25T17:07:07.377Z,13.64
2018-08-25T17:09:37.772Z,13.77
2018-08-25T17:12:08.316Z,13.78
2018-08-25T17:14:38.633Z,13.92
2018-08-25T17:17:09.220Z,13.94
2018-08-25T17:19:39.638Z,13.86
2018-08-25T17:22:10.695Z,13.79
2018-08-25T17:24:41.471Z,13.82
2018-08-25T17:27:12.479Z,13.87
2018-08-25T17:29:42.904Z,13.78
2018-08-25T17:32:13.697Z,14.20
2018-08-25T17:34:43.958Z,14.46
2018-08-25T17:37:16.248Z,14.28
2018-08-25T17:39:46.545Z,14.40
2018-08-25T17:42:17.211Z,14.24
2018-08-25T17:44:47.733Z,14.15
2018-08-25T17:47:18.170Z,14.44
2018-08-25T17:49:49.814Z,14.24
2018-08-25T17:52:20.412Z,14.15
2018-08-25T17:54:52.417Z,13.83
2018-08-25T17:57:23.292Z,13.92
2018-08-25T17:59:54.640Z,13.91
2018-08-25T18:02:25.717Z,13.89
2018-08-25T18:04:56.857Z,14.01
2018-08-25T18:07:27.902Z,13.64
2018-08-25T18:09:58.912Z,13.49
2018-08-25T18:12:30.289Z,13.72
2018-08-25T18:15:02.335Z,13.58
2018-08-25T18:17:34.235Z,13.00
2018-08-25T18:20:05.867Z,13.17
2018-08-25T18:22:37.085Z,13.09
2018-08-25T18:25:08.411Z,13.12
2018-08-25T18:27:38.979Z,12.79
2018-08-25T18:30:12.479Z,12.81
2018-08-25T18:32:43.193Z,12.60
2018-08-25T18:35:15.084Z,12.70
2018-08-25T18:37:46.784Z,12.66
2018-08-25T18:40:19.751Z,12.54
2018-08-25T18:42:50.495Z,12.52
2018-08-25T18:45:24.489Z,12.27
2018-08-25T18:47:56.110Z,12.43
2018-08-25T18:50:28.992Z,12.57
2018-08-25T18:52:59.319Z,12.60
2018-08-25T18:55:31.946Z,12.49
2018-08-25T18:58:04.915Z,12.37
2018-08-25T19:00:36.000Z,12.50
2018-08-25T19:03:07.700Z,12.54
2018-08-25T19:05:39.687Z,12.59
2018-08-25T19:08:11.346Z,12.74
2018-08-25T19:10:47.608Z,12.79
2018-08-25T19:13:20.314Z,12.73
2018-08-25T19:15:51.547Z,12.72
2018-08-25T19:18:22.888Z,12.61
2018-08-25T19:20:54.005Z,12.55
2018-08-25T19:23:24.956Z,12.54
2018-08-25T19:25:56.895Z,12.52
2018-08-25T19:28:28.296Z,12.45
2018-08-25T19:30:59.342Z,12.51
2018-08-25T19:33:30.703Z,12.39
2018-08-25T19:36:02.036Z,12.36
2018-08-25T19:38:32.972Z,12.32
2018-08-25T19:41:03.739Z,12.26
2018-08-25T19:43:34.273Z,12.09
2018-08-25T19:46:05.362Z,12.38
2018-08-25T19:48:35.954Z,12.11
2018-08-25T19:51:06.512Z,12.06
2018-08-25T19:53:36.988Z,12.18
2018-08-25T19:56:07.243Z,12.03
2018-08-25T19:58:37.672Z,12.10
2018-08-25T20:01:07.954Z,12.06
2018-08-25T20:03:38.507Z,12.19
2018-08-25T20:06:09.296Z,11.96
2018-08-25T20:08:39.747Z,11.90
2018-08-25T20:11:10.447Z,11.85
2018-08-25T20:13:41.293Z,11.84
2018-08-25T20:16:12.616Z,11.77
2018-08-25T20:18:43.553Z,11.73
2018-08-25T20:21:13.979Z,11.57
2018-08-25T20:23:44.397Z,11.56
2018-08-25T20:26:14.709Z,11.61
2018-08-25T20:28:45.068Z,11.61
2018-08-25T20:31:16.209Z,11.65
2018-08-25T20:33:47.279Z,11.53
2018-08-25T20:36:17.898Z,11.57
2018-08-25T20:38:49.722Z,11.59
2018-08-25T20:41:20.749Z,11.86
2018-08-25T20:43:51.189Z,11.53
2018-08-25T20:46:22.576Z,11.75
2018-08-25T20:48:53.062Z,11.83
2018-08-25T20:51:23.988Z,11.67
2018-08-25T20:53:56.312Z,11.56
2018-08-25T20:56:26.835Z,11.44
2018-08-25T20:58:57.244Z,11.50
2018-08-25T21:01:29.278Z,11.41
2018-08-25T21:03:59.736Z,11.36
2018-08-25T21:06:30.195Z,11.50
2018-08-25T21:09:01.469Z,11.57
2018-08-25T21:11:31.884Z,11.61
2018-08-25T21:14:02.232Z,11.44
2018-08-25T21:16:32.692Z,11.35
2018-08-25T21:19:04.539Z,11.19
2018-08-25T21:21:35.509Z,11.07
2018-08-25T21:24:06.164Z,11.14
2018-08-25T21:26:36.400Z,11.20
2018-08-25T21:29:07.426Z,11.01
2018-08-25T21:31:38.062Z,11.15
2018-08-25T21:34:08.589Z,11.11
2018-08-25T21:36:38.864Z,11.16
2018-08-25T21:39:11.508Z,10.94
2018-08-25T21:41:42.283Z,10.85
2018-08-25T21:44:12.784Z,10.59
2018-08-25T21:46:43.057Z,10.68
2018-08-25T21:49:13.939Z,10.71
2018-08-25T21:51:44.381Z,10.55
2018-08-25T21:54:14.903Z,10.81
2018-08-25T21:56:45.230Z,10.72
2018-08-25T21:59:18.530Z,10.54
2018-08-25T22:01:54.922Z,10.58
2018-08-25T22:04:25.556Z,10.61
2018-08-25T22:06:56.176Z,10.57
2018-08-25T22:09:26.732Z,10.36
2018-08-25T22:11:58.567Z,10.10
2018-08-25T22:14:30.080Z,10.19
2018-08-25T22:17:00.545Z,10.26
2018-08-25T22:19:30.933Z,10.35
2018-08-25T22:22:02.205Z,10.42
2018-08-25T22:24:33.202Z,10.30
2018-08-25T22:27:03.606Z,10.30
2018-08-25T22:29:34.251Z,10.14
2018-08-25T22:32:06.015Z,10.16
2018-08-25T22:34:36.405Z,10.25
2018-08-25T22:37:06.860Z,10.17
2018-08-25T22:39:37.063Z,10.12
2018-08-25T22:42:07.461Z,9.99
2018-08-25T22:44:37.718Z,10.09
2018-08-25T22:47:08.342Z,10.10
2018-08-25T22:49:38.889Z,10.18
2018-08-25T22:52:09.310Z,10.10
2018-08-25T22:54:39.854Z,10.12
2018-08-25T22:57:10.538Z,10.07
2018-08-25T22:59:40.776Z,9.98
2018-08-25T23:02:11.257Z,9.97
2018-08-25T23:04:41.977Z,9.92
2018-08-25T23:07:13.473Z,10.04
2018-08-25T23:09:43.797Z,9.81
2018-08-25T23:12:14.315Z,9.86
2018-08-25T23:14:44.755Z,10.02
2018-08-25T23:17:14.926Z,9.97
2018-08-25T23:19:45.410Z,9.97
2018-08-25T23:22:16.025Z,9.81
2018-08-25T23:24:46.374Z,9.95
2018-08-25T23:27:16.908Z,9.91
2018-08-25T23:29:47.269Z,9.70
2018-08-25T23:32:18.116Z,9.78
2018-08-25T23:34:48.477Z,9.68
2018-08-25T23:37:18.858Z,9.75
2018-08-25T23:39:49.301Z,9.62
2018-08-25T23:42:19.779Z,9.77
2018-08-25T23:44:50.171Z,9.76
2018-08-25T23:47:20.737Z,9.70
2018-08-25T23:49:51.027Z,9.75
2018-08-25T23:52:21.588Z,9.80
2018-08-25T23:54:52.496Z,9.75
2018-08-25T23:57:22.795Z,9.62
2018-08-25T23:59:53.061Z,9.42
